Terminal Aerodrome Forecast
Issued by NWS Tulsa, OK

Home | Current Version | Previous Version | Text Only | Print | Product List | Glossary On
Versions: 1 2 3 4 5 6 7 8 9 10 11 12
000
FTUS44 KTSA 290500
TAFTUL
TAF
KTUL 290520Z 2906/3006 06004KT P6SM SCT250
     FM291200 08004KT P6SM FEW110
     FM291800 09006KT P6SM SCT250
     FM300200 11005KT P6SM BKN250=

USA.gov is the U.S. government's official web portal to all federal, state and local government web resources and services.